Time;durP1;ratioP1;P1;durP2;ratioP2;P2;SDS_P1;SDS_P2;PMS_P1;PMS_P2;Temp;Humidity;BMP_temperature;BMP_pressure;BME280_temperature;BME280_humidity;BME280_pressure;Samples;Min_cycle;Max_cycle;Signal;HPM_P1;HPM_P2
2022/10/02 00:02:22;;;;;;;12.15;1.50;;;;;;;21.81;47.25;101251.22;5056731;28;20401;-62
2022/10/02 00:04:52;;;;;;;10.98;1.60;;;;;;;21.77;47.24;101244.47;5056391;28;20050;-62
2022/10/02 00:07:20;;;;;;;8.57;1.63;;;;;;;21.77;47.69;101253.50;5056443;28;20029;-62
2022/10/02 00:09:54;;;;;;;15.93;1.85;;;;;;;21.78;47.60;101247.00;5055249;28;20020;-62
2022/10/02 00:12:22;;;;;;;9.95;1.85;;;;;;;21.80;47.43;101246.81;5055175;28;20029;-62
2022/10/02 00:14:50;;;;;;;11.00;1.80;;;;;;;21.81;47.57;101262.13;5055126;28;20025;-62
2022/10/02 00:17:38;;;;;;;16.08;1.80;;;;;;;21.81;48.33;101270.31;5055043;28;20029;-62
2022/10/02 00:20:14;;;;;;;7.43;1.92;;;;;;;21.77;47.81;101274.47;5056203;28;20107;-62
2022/10/02 00:22:54;;;;;;;11.88;1.92;;;;;;;21.76;48.20;101280.94;5056144;28;20389;-62
2022/10/02 00:25:26;;;;;;;10.98;1.40;;;;;;;21.74;47.84;101285.75;5054833;28;20371;-62
2022/10/02 00:27:55;;;;;;;15.55;1.75;;;;;;;21.73;48.24;101282.19;5056325;28;20029;-62
2022/10/02 00:30:20;;;;;;;14.48;2.30;;;;;;;21.71;48.33;101269.78;5055967;28;20025;-62
2022/10/02 00:32:57;;;;;;;7.82;1.60;;;;;;;21.74;47.70;101281.16;5055896;28;20066;-62
2022/10/02 00:36:01;;;;;;;13.15;2.40;;;;;;;21.77;47.77;101296.28;5054719;28;20021;-62
2022/10/02 00:38:50;;;;;;;7.93;2.08;;;;;;;21.77;47.53;101291.69;5041637;28;20044;-62
2022/10/02 00:41:35;;;;;;;11.43;2.15;;;;;;;21.76;48.37;101291.84;5055812;28;20021;-62
2022/10/02 00:44:10;;;;;;;13.63;1.85;;;;;;;21.76;48.09;101300.03;5055112;28;20037;-62
2022/10/02 00:46:46;;;;;;;9.52;1.75;;;;;;;21.76;48.67;101297.31;5055583;28;20029;-62
2022/10/02 00:49:17;;;;;;;18.02;2.13;;;;;;;21.75;47.67;101303.78;5054148;28;20474;-62
2022/10/02 00:51:51;;;;;;;15.70;1.88;;;;;;;21.75;48.70;101304.66;5055489;28;20033;-62
2022/10/02 00:54:25;;;;;;;13.20;1.83;;;;;;;21.72;47.85;101299.56;5055463;28;20086;-62
2022/10/02 00:57:20;;;;;;;12.07;1.77;;;;;;;21.74;48.00;101307.56;5055341;28;20115;-62
2022/10/02 01:00:22;;;;;;;11.70;2.17;;;;;;;21.75;47.92;101309.25;5054196;28;20127;-62
2022/10/02 01:02:48;;;;;;;21.30;2.90;;;;;;;21.74;48.25;101315.75;5045237;28;20375;-62
2022/10/02 01:05:14;;;;;;;16.77;3.58;;;;;;;21.75;48.73;101309.25;5054034;28;20029;-62
2022/10/02 01:07:41;;;;;;;13.93;2.05;;;;;;;21.78;48.97;101308.88;5054119;28;20033;-62
2022/10/02 01:10:11;;;;;;;15.95;2.50;;;;;;;21.78;48.21;101308.88;5054312;28;20033;-62
2022/10/02 01:12:37;;;;;;;10.52;2.03;;;;;;;21.77;47.88;101312.66;5055242;28;20033;-62
2022/10/02 01:15:14;;;;;;;12.07;1.65;;;;;;;21.77;48.26;101301.75;5055301;28;20111;-62
2022/10/02 01:17:39;;;;;;;13.98;2.10;;;;;;;21.78;48.33;101306.13;5053910;28;20032;-62
2022/10/02 01:20:06;;;;;;;19.17;2.63;;;;;;;21.79;48.61;101299.66;5055077;28;20033;-62
2022/10/02 01:22:49;;;;;;;18.58;1.98;;;;;;;21.80;49.14;101301.38;5053940;28;20052;-62
2022/10/02 01:25:15;;;;;;;12.50;2.15;;;;;;;21.80;48.49;101298.63;5053804;28;20492;-62
2022/10/02 01:27:40;;;;;;;9.90;1.70;;;;;;;21.82;48.34;101293.81;5054914;28;20025;-62
2022/10/02 01:30:11;;;;;;;17.67;2.47;;;;;;;21.81;48.54;101292.97;5053812;28;20025;-62
2022/10/02 01:32:39;;;;;;;13.00;1.63;;;;;;;21.82;49.13;101291.09;5053718;28;20548;-62
2022/10/02 01:35:05;;;;;;;11.20;1.73;;;;;;;21.84;49.01;101297.19;5053701;28;20103;-62
2022/10/02 01:37:33;;;;;;;14.10;2.28;;;;;;;21.84;49.02;101291.75;5054972;28;20133;-62
2022/10/02 01:40:03;;;;;;;8.55;2.15;;;;;;;21.86;48.43;101290.50;5054619;28;20029;-61
2022/10/02 01:42:29;;;;;;;21.13;2.42;;;;;;;21.85;48.59;101298.91;5053572;28;20125;-62
2022/10/02 01:44:54;;;;;;;15.65;2.10;;;;;;;21.83;48.45;101292.81;5054611;28;20064;-62
2022/10/02 01:47:36;;;;;;;9.15;1.95;;;;;;;21.80;49.37;101285.00;5053314;28;20104;-62
2022/10/02 01:50:27;;;;;;;10.65;1.60;;;;;;;21.84;48.94;101275.38;5054540;28;20418;-62
2022/10/02 01:53:02;;;;;;;12.52;2.08;;;;;;;21.86;48.32;101285.06;5054438;28;20025;-62
2022/10/02 01:56:02;;;;;;;11.68;2.00;;;;;;;21.86;48.48;101284.25;5053325;28;20032;-62
2022/10/02 01:58:28;;;;;;;13.32;1.92;;;;;;;21.86;48.90;101284.25;5034964;28;20049;-61
2022/10/02 02:01:03;;;;;;;15.98;2.50;;;;;;;21.87;48.76;101291.41;5053700;28;20024;-62
2022/10/02 02:04:30;;;;;;;15.45;2.28;;;;;;;21.87;48.90;101292.25;5054338;28;20043;-62
2022/10/02 02:07:01;;;;;;;13.68;1.90;;;;;;;21.87;48.54;101294.13;5030978;28;20056;-62
2022/10/02 02:09:40;;;;;;;15.70;2.05;;;;;;;21.85;48.79;101288.00;5054347;28;20033;-62
2022/10/02 02:12:11;;;;;;;11.20;2.45;;;;;;;21.91;49.40;101296.31;5054068;28;20425;-62
2022/10/02 02:14:42;;;;;;;19.10;2.70;;;;;;;21.92;49.34;101283.47;5052952;28;20043;-63
2022/10/02 02:17:16;;;;;;;19.45;2.13;;;;;;;21.94;49.44;101281.44;5052986;28;20597;-62
2022/10/02 02:19:48;;;;;;;9.50;1.92;;;;;;;21.95;48.53;101275.75;5052650;28;20021;-62
2022/10/02 02:22:13;;;;;;;18.13;2.53;;;;;;;21.95;49.27;101277.63;5052983;28;20078;-62
2022/10/02 02:24:43;;;;;;;14.15;2.00;;;;;;;21.93;49.47;101287.91;5053811;28;20270;-62
2022/10/02 02:27:13;;;;;;;11.73;2.30;;;;;;;21.94;48.46;101295.06;5053954;28;20021;-62
2022/10/02 02:29:39;;;;;;;12.80;2.60;;;;;;;21.93;48.84;101298.81;5053777;28;20027;-62
2022/10/02 02:32:07;;;;;;;10.88;1.92;;;;;;;21.91;48.97;101299.03;5053659;28;20120;-62
2022/10/02 02:34:44;;;;;;;11.63;1.33;;;;;;;21.86;48.99;101300.59;5052428;28;20524;-62
2022/10/02 02:37:15;;;;;;;19.52;1.90;;;;;;;21.84;49.41;101299.94;5036025;28;20017;-61
2022/10/02 02:39:51;;;;;;;13.05;2.47;;;;;;;21.82;49.40;101293.81;5053797;28;20390;-62
2022/10/02 02:42:19;;;;;;;12.07;1.73;;;;;;;21.71;49.68;101299.78;5053543;28;20039;-61
2022/10/02 02:44:56;;;;;;;12.57;2.13;;;;;;;21.61;49.83;101302.78;5052321;28;20389;-62
2022/10/02 02:47:46;;;;;;;9.38;1.65;;;;;;;21.61;50.34;101308.22;5053518;28;20029;-62
2022/10/02 02:50:23;;;;;;;12.05;2.03;;;;;;;21.54;50.51;101306.47;5053504;28;20037;-62
2022/10/02 02:53:06;;;;;;;8.63;2.30;;;;;;;21.52;49.89;101309.38;5035503;28;20021;-62
2022/10/02 02:55:32;;;;;;;;;;;;;;;21.51;49.50;101306.84;5052628;28;20072;-61
2022/10/02 02:58:04;;;;;;;8.95;1.83;;;;;;;21.51;50.26;101296.78;5053127;28;19923;-62
2022/10/02 03:00:30;;;;;;;11.68;1.52;;;;;;;21.53;49.77;101300.16;5052143;28;20563;-61
2022/10/02 03:02:55;;;;;;;14.07;2.55;;;;;;;21.55;49.79;101303.56;5035417;28;20033;-61
2022/10/02 03:05:23;;;;;;;11.38;1.98;;;;;;;21.54;50.08;101309.19;5052024;28;20028;-61
2022/10/02 03:07:52;;;;;;;11.85;2.88;;;;;;;21.55;50.03;101302.72;5052302;28;20021;-61
2022/10/02 03:10:40;;;;;;;8.55;1.75;;;;;;;21.58;49.63;101302.34;5035304;28;20054;-61
2022/10/02 03:13:14;;;;;;;12.15;2.15;;;;;;;21.58;49.93;101305.88;5053231;28;20044;-61
2022/10/02 03:16:06;;;;;;;9.75;1.88;;;;;;;21.57;50.03;101306.94;5053184;28;20025;-62
2022/10/02 03:18:48;;;;;;;13.88;1.75;;;;;;;21.56;50.64;101293.47;5022325;28;20111;-61
2022/10/02 03:21:19;;;;;;;17.48;2.47;;;;;;;21.52;49.69;101284.00;5051834;28;20507;-61
2022/10/02 03:24:23;;;;;;;12.07;1.40;;;;;;;21.52;50.59;101292.19;5052278;28;20444;-61
2022/10/02 03:26:58;;;;;;;12.73;1.42;;;;;;;21.48;49.88;101289.81;5038588;28;20512;-61
2022/10/02 03:29:32;;;;;;;7.72;1.52;;;;;;;21.46;50.46;101294.63;5053333;28;20025;-61
2022/10/02 03:31:58;;;;;;;14.82;1.75;;;;;;;21.50;49.93;101289.63;5053054;28;20016;-61
2022/10/02 03:34:24;;;;;;;10.88;1.33;;;;;;;21.47;50.55;101290.84;5035269;28;20031;-61
2022/10/02 03:36:50;;;;;;;7.35;1.35;;;;;;;21.51;50.52;101291.31;5051741;28;20025;-62
2022/10/02 03:39:15;;;;;;;6.72;1.48;;;;;;;21.55;50.06;101287.19;5052942;28;20478;-61
2022/10/02 03:41:40;;;;;;;15.68;1.92;;;;;;;21.56;49.97;101298.94;5053127;28;20036;-61
2022/10/02 03:44:06;;;;;;;13.13;1.98;;;;;;;21.52;49.98;101297.63;5053158;28;20079;-61
2022/10/02 03:46:31;;;;;;;5.60;2.40;;;;;;;21.55;50.40;101314.47;5052812;28;20371;-61
2022/10/02 03:48:56;;;;;;;8.50;1.48;;;;;;;21.55;50.34;101308.16;5052899;28;20454;-62
2022/10/02 03:51:22;;;;;;;16.23;1.77;;;;;;;21.50;50.76;101307.88;5052850;28;20029;-62
2022/10/02 03:53:48;;;;;;;10.27;1.52;;;;;;;21.56;51.04;101304.38;5035350;28;20556;-61
2022/10/02 03:56:41;;;;;;;15.98;2.65;;;;;;;21.56;50.74;101307.09;5052944;28;20029;-60
2022/10/02 03:59:13;;;;;;;10.07;1.83;;;;;;;21.54;50.72;101303.72;5052743;28;20024;-61
2022/10/02 04:01:42;;;;;;;9.18;1.90;;;;;;;21.54;51.17;101306.47;5051748;28;20478;-61
2022/10/02 04:04:16;;;;;;;16.90;2.30;;;;;;;21.52;50.34;101298.47;5051562;28;20024;-61
2022/10/02 04:06:52;;;;;;;11.32;1.45;;;;;;;21.52;51.21;101303.94;5051698;28;20064;-61
2022/10/02 04:09:26;;;;;;;12.40;1.38;;;;;;;21.52;51.28;101308.53;5052524;28;20025;-61
2022/10/02 04:12:02;;;;;;;7.97;1.83;;;;;;;21.50;51.05;101302.44;5052923;28;20025;-61
2022/10/02 04:14:41;;;;;;;12.65;1.80;;;;;;;21.47;50.24;101311.81;5051426;28;20029;-61
2022/10/02 04:17:14;;;;;;;11.90;1.88;;;;;;;21.45;50.96;101303.81;5051371;28;20492;-61
2022/10/02 04:19:48;;;;;;;9.02;1.50;;;;;;;21.44;51.14;101304.84;5051371;28;20029;-61
2022/10/02 04:22:33;;;;;;;11.38;1.65;;;;;;;21.45;50.55;101312.00;5051292;28;20083;-61
2022/10/02 04:24:58;;;;;;;8.70;2.20;;;;;;;21.46;51.26;101315.59;5054434;28;20035;-62
2022/10/02 04:27:54;;;;;;;5.18;1.65;;;;;;;21.47;50.92;101312.66;5056155;28;20025;-61
2022/10/02 04:30:20;;;;;;;11.13;1.40;;;;;;;21.44;51.24;101323.94;5049857;28;20413;-61
2022/10/02 04:32:46;;;;;;;12.35;1.80;;;;;;;21.47;51.36;101317.25;5056042;28;20100;-62
2022/10/02 04:35:11;;;;;;;7.63;1.50;;;;;;;21.47;51.67;101323.56;5056127;28;20037;-62
2022/10/02 04:37:55;;;;;;;7.55;1.25;;;;;;;21.47;51.57;101337.19;5055897;28;20374;-62
2022/10/02 04:40:56;;;;;;;6.20;1.27;;;;;;;21.45;50.77;101316.59;5056097;28;20045;-62
2022/10/02 04:43:46;;;;;;;5.70;1.50;;;;;;;21.48;50.41;101329.88;5055684;28;20020;-62
2022/10/02 04:46:22;;;;;;;7.57;2.17;;;;;;;21.48;50.56;101330.72;5054491;28;20513;-62
2022/10/02 04:48:57;;;;;;;5.57;1.15;;;;;;;21.50;50.70;101332.44;5054466;28;20029;-62
2022/10/02 04:51:43;;;;;;;8.70;1.25;;;;;;;21.51;51.49;101336.81;5055858;28;20055;-61
2022/10/02 04:54:35;;;;;;;4.85;1.20;;;;;;;21.50;50.99;101338.69;5055713;28;20508;-61
2022/10/02 04:57:38;;;;;;;3.95;1.30;;;;;;;21.50;51.36;101338.69;5055398;28;20048;-62
2022/10/02 05:00:09;;;;;;;4.10;1.30;;;;;;;21.48;50.98;101343.50;5055708;28;20056;-61
2022/10/02 05:02:44;;;;;;;4.95;0.85;;;;;;;21.46;51.10;101335.53;5055589;28;20028;-61
2022/10/02 05:05:47;;;;;;;6.63;1.45;;;;;;;21.47;50.79;101339.06;5055317;28;20554;-61
2022/10/02 05:08:37;;;;;;;2.03;0.70;;;;;;;21.45;50.77;101339.28;5055395;28;20504;-62
2022/10/02 05:11:11;;;;;;;7.22;1.42;;;;;;;21.44;51.43;101343.03;5054194;28;20425;-61
2022/10/02 05:13:58;;;;;;;3.88;1.00;;;;;;;21.38;50.63;101343.75;5055334;28;20397;-62
2022/10/02 05:16:45;;;;;;;4.53;1.30;;;;;;;21.42;51.24;101345.09;5055224;28;20020;-62
2022/10/02 05:19:25;;;;;;;6.40;1.42;;;;;;;21.42;50.83;101357.88;5055190;28;20078;-62
2022/10/02 05:22:36;;;;;;;2.47;0.77;;;;;;;21.40;50.80;101349.91;5053847;28;20021;-62
2022/10/02 05:25:25;;;;;;;10.82;1.08;;;;;;;21.40;50.73;101359.94;5050907;28;20037;-62
2022/10/02 05:28:09;;;;;;;3.80;0.77;;;;;;;21.38;51.46;101357.38;5053787;28;20021;-62
2022/10/02 05:30:52;;;;;;;9.07;1.73;;;;;;;21.37;51.49;101354.88;5054053;28;20382;-61
2022/10/02 05:33:37;;;;;;;5.80;1.15;;;;;;;21.40;50.73;101363.53;5053683;28;20033;-61
2022/10/02 05:36:15;;;;;;;3.35;0.85;;;;;;;21.41;51.78;101359.75;5053005;28;20037;-62
2022/10/02 05:38:56;;;;;;;8.10;1.45;;;;;;;21.39;50.97;101360.97;5053445;28;20052;-62
2022/10/02 05:41:49;;;;;;;5.70;1.65;;;;;;;21.41;51.68;101367.91;5053420;28;20082;-61
2022/10/02 05:44:19;;;;;;;7.13;1.42;;;;;;;21.42;51.68;101368.78;5053371;28;20028;-61
2022/10/02 05:47:00;;;;;;;6.20;1.15;;;;;;;21.43;50.99;101362.31;5036547;28;20025;-62
2022/10/02 05:49:34;;;;;;;6.75;1.42;;;;;;;21.46;51.02;101372.84;5053338;28;20025;-62
2022/10/02 05:52:20;;;;;;;11.93;1.20;;;;;;;21.48;51.04;101362.59;5053193;28;20029;-62
2022/10/02 05:54:48;;;;;;;8.55;0.90;;;;;;;21.47;51.16;101364.47;5054431;28;20032;-62
2022/10/02 05:57:30;;;;;;;5.55;0.93;;;;;;;21.47;51.00;101374.50;5053146;28;20049;-62
2022/10/02 06:00:24;;;;;;;11.23;1.10;;;;;;;21.44;51.44;101381.19;5054353;28;20552;-62
2022/10/02 06:02:56;;;;;;;6.20;1.13;;;;;;;21.44;51.13;101370.28;5054300;28;20498;-62
2022/10/02 06:05:55;;;;;;;5.10;0.98;;;;;;;21.44;50.72;101383.91;5054188;28;20032;-62
2022/10/02 06:08:31;;;;;;;7.25;1.73;;;;;;;21.42;51.37;101383.25;5036265;28;20027;-62
2022/10/02 06:11:01;;;;;;;4.15;1.33;;;;;;;21.42;51.45;101390.59;5054486;28;20029;-62
2022/10/02 06:13:34;;;;;;;3.83;0.93;;;;;;;21.40;51.27;101398.09;5052860;28;20025;-62
2022/10/02 06:16:18;;;;;;;7.57;0.77;;;;;;;21.38;51.31;101409.19;5052970;28;20029;-62
2022/10/02 06:18:48;;;;;;;4.13;0.75;;;;;;;21.36;50.77;101403.06;5052856;28;20021;-62
2022/10/02 06:21:22;;;;;;;6.93;1.45;;;;;;;21.38;51.50;101411.91;5052711;28;20029;-62
2022/10/02 06:23:52;;;;;;;9.85;1.33;;;;;;;21.34;51.70;101416.06;5053836;28;20386;-62
2022/10/02 06:26:37;;;;;;;4.25;0.80;;;;;;;21.28;50.73;101411.34;5052715;28;20394;-62
2022/10/02 06:29:06;;;;;;;8.18;0.95;;;;;;;21.19;51.25;101417.06;5052700;28;20075;-62
2022/10/02 06:32:23;;;;;;;7.05;1.92;;;;;;;21.15;51.54;101415.72;5053786;28;20107;-62
2022/10/02 06:34:49;;;;;;;4.93;1.20;;;;;;;21.08;51.37;101410.16;5043014;28;20033;-62
2022/10/02 06:37:35;;;;;;;3.38;0.65;;;;;;;21.10;51.12;101410.84;5052551;28;20036;-62
2022/10/02 06:40:32;;;;;;;7.75;1.35;;;;;;;21.10;51.95;101410.84;5053826;28;20025;-62
2022/10/02 06:43:35;;;;;;;2.10;0.80;;;;;;;21.11;51.64;101417.94;5035630;28;20029;-62
2022/10/02 06:46:27;;;;;;;4.57;0.77;;;;;;;21.13;51.40;101418.66;5053107;28;20025;-61
2022/10/02 06:48:58;;;;;;;3.67;0.68;;;;;;;21.15;51.78;101413.84;5052569;28;20021;-62
2022/10/02 06:51:34;;;;;;;5.75;0.90;;;;;;;21.18;51.13;101426.25;5053422;28;20020;-62
2022/10/02 06:54:18;;;;;;;4.25;0.93;;;;;;;21.22;51.01;101417.50;5052439;28;20025;-62
2022/10/02 06:57:10;;;;;;;8.52;1.13;;;;;;;21.21;51.45;101418.56;5051962;28;20052;-62
2022/10/02 06:59:47;;;;;;;5.30;1.53;;;;;;;21.29;50.88;101434.84;5052293;28;20544;-62
2022/10/02 07:02:28;;;;;;;3.58;0.80;;;;;;;21.27;51.40;101431.44;5052477;28;20265;-62
2022/10/02 07:05:00;;;;;;;6.22;1.10;;;;;;;21.31;50.65;101438.22;5053166;28;20166;-62
2022/10/02 07:07:35;;;;;;;9.73;1.35;;;;;;;21.34;50.48;101432.41;5053296;28;20112;-62
2022/10/02 07:10:31;;;;;;;6.95;0.88;;;;;;;21.39;51.48;101435.41;5053143;28;20021;-62
2022/10/02 07:13:15;;;;;;;4.63;0.60;;;;;;;21.43;50.77;101446.81;5053207;28;20028;-62
2022/10/02 07:15:55;;;;;;;8.43;1.75;;;;;;;21.44;51.32;101449.34;5053326;28;20025;-62
2022/10/02 07:18:36;;;;;;;5.25;1.42;;;;;;;21.44;51.48;101443.03;5053015;28;20033;-62
2022/10/02 07:21:23;;;;;;;5.07;0.77;;;;;;;21.44;51.55;101438.44;5051835;28;20112;-62
2022/10/02 07:23:57;;;;;;;6.28;1.30;;;;;;;21.44;51.10;101452.06;5053251;28;20029;-62
2022/10/02 07:26:25;;;;;;;7.80;0.75;;;;;;;21.44;51.08;101454.78;5053019;28;20482;-63
2022/10/02 07:28:57;;;;;;;11.07;1.38;;;;;;;21.44;51.14;101453.94;5053081;28;20032;-62
2022/10/02 07:31:45;;;;;;;9.45;0.80;;;;;;;21.43;51.66;101464.03;5053020;28;20108;-62
2022/10/02 07:34:50;;;;;;;3.38;0.60;;;;;;;21.46;51.06;101462.81;5051831;28;20013;-62
2022/10/02 07:37:39;;;;;;;6.65;0.57;;;;;;;21.49;50.48;101459.72;5051853;28;20466;-62
2022/10/02 07:40:09;;;;;;;3.03;0.60;;;;;;;21.51;51.40;101462.22;5051778;28;20017;-62
2022/10/02 07:43:07;;;;;;;3.88;0.57;;;;;;;21.57;50.34;101458.78;5052841;28;20024;-63
2022/10/02 07:45:40;;;;;;;1.38;0.60;;;;;;;21.61;50.50;101463.66;5044968;28;20124;-62
2022/10/02 07:48:09;;;;;;;5.63;0.75;;;;;;;21.68;50.71;101463.78;5053063;28;20108;-62
2022/10/02 07:50:51;;;;;;;5.25;0.98;;;;;;;21.71;50.52;101466.13;5052863;28;20021;-61
2022/10/02 07:53:45;;;;;;;4.55;0.50;;;;;;;21.73;50.20;101464.06;5051655;28;20035;-62
2022/10/02 07:56:19;;;;;;;7.85;0.95;;;;;;;21.74;50.33;101473.94;5049702;28;20029;-63
2022/10/02 07:58:57;;;;;;;5.15;1.10;;;;;;;21.78;50.79;101467.06;5052886;28;20029;-62
2022/10/02 08:01:32;;;;;;;2.33;0.98;;;;;;;21.78;50.16;101470.66;5055314;28;20496;-61
2022/10/02 08:04:03;;;;;;;2.58;0.55;;;;;;;21.79;51.04;101475.09;5056550;28;20112;-62
2022/10/02 08:06:30;;;;;;;1.83;0.47;;;;;;;21.80;50.20;101473.22;5055186;28;20595;-61
2022/10/02 08:09:08;;;;;;;1.50;0.77;;;;;;;21.81;50.66;101473.00;5055241;28;20028;-62
2022/10/02 08:11:52;;;;;;;4.85;0.70;;;;;;;21.82;50.84;101474.72;5055229;28;20017;-62
2022/10/02 08:14:34;;;;;;;2.90;0.70;;;;;;;21.88;50.04;101484.06;5056358;28;20036;-62
2022/10/02 08:17:34;;;;;;;3.17;0.60;;;;;;;21.94;49.95;101484.13;5056478;28;20036;-62
2022/10/02 08:20:28;;;;;;;4.20;1.10;;;;;;;22.02;49.93;101486.81;5015294;28;20076;-62
2022/10/02 08:23:00;;;;;;;4.13;1.27;;;;;;;22.10;50.63;101488.59;5055050;28;20128;-62
2022/10/02 08:25:33;;;;;;;3.38;1.20;;;;;;;22.17;49.80;101500.44;5056016;28;20025;-62
2022/10/02 08:28:10;;;;;;;1.67;0.45;;;;;;;22.22;50.59;101508.91;5055141;28;20390;-62
2022/10/02 08:30:37;;;;;;;5.47;0.90;;;;;;;22.24;49.78;101512.31;5055192;28;20029;-62
2022/10/02 08:33:12;;;;;;;3.25;0.88;;;;;;;22.25;49.71;101513.97;5056014;28;20033;-62
2022/10/02 08:35:53;;;;;;;7.13;0.80;;;;;;;22.24;50.40;101506.84;5055893;28;20082;-62
2022/10/02 08:38:40;;;;;;;5.45;1.15;;;;;;;22.36;50.50;101515.41;5054892;28;20020;-62
2022/10/02 08:41:39;;;;;;;2.83;0.63;;;;;;;22.46;50.17;101522.28;5054664;28;20029;-62
2022/10/02 08:44:21;;;;;;;4.55;1.05;;;;;;;22.67;50.08;101517.97;5054608;28;20066;-62
2022/10/02 08:47:13;;;;;;;5.80;0.70;;;;;;;22.87;49.94;101527.22;5054562;28;20082;-61
2022/10/02 08:49:44;;;;;;;2.55;0.88;;;;;;;22.90;49.28;101521.38;5055624;28;20035;-61
2022/10/02 08:52:19;;;;;;;3.35;0.98;;;;;;;22.90;49.90;101519.50;5055617;28;20032;-61
2022/10/02 08:55:22;;;;;;;6.47;0.90;;;;;;;22.87;49.28;101516.28;5055787;28;20035;-61
2022/10/02 08:58:23;;;;;;;4.90;1.00;;;;;;;22.78;49.46;101520.19;5055241;28;20134;-61
2022/10/02 09:01:09;;;;;;;3.65;0.68;;;;;;;22.74;50.57;101518.88;5054281;28;20394;-61
2022/10/02 09:03:44;;;;;;;5.80;1.30;;;;;;;22.78;50.52;101526.47;5054180;28;20056;-61
2022/10/02 09:06:47;;;;;;;6.63;0.90;;;;;;;22.90;49.52;101526.84;5054397;28;20112;-61
2022/10/02 09:09:53;;;;;;;2.53;0.60;;;;;;;22.96;50.37;101524.19;5055144;28;20397;-61
2022/10/02 09:12:25;;;;;;;6.68;0.73;;;;;;;23.07;50.20;101525.56;5028040;28;20596;-61
2022/10/02 09:15:11;;;;;;;2.75;0.98;;;;;;;23.19;50.15;101524.03;5053951;28;20040;-61
2022/10/02 09:17:58;;;;;;;4.22;0.77;;;;;;;23.24;49.17;101518.81;5054069;28;20379;-60
2022/10/02 09:20:44;;;;;;;4.13;0.57;;;;;;;23.27;49.04;101521.16;5055059;28;20078;-61
2022/10/02 09:23:47;;;;;;;6.28;0.85;;;;;;;23.19;49.63;101515.81;5054996;28;20033;-62
2022/10/02 09:26:15;;;;;;;5.45;0.80;;;;;;;23.11;50.18;101532.34;5054732;28;20120;-61
2022/10/02 09:29:02;;;;;;;5.80;1.02;;;;;;;23.08;49.51;101530.00;5054934;28;20024;-61
2022/10/02 09:31:55;;;;;;;2.78;0.70;;;;;;;23.01;49.91;101537.25;5055119;28;20474;-61
2022/10/02 09:34:41;;;;;;;3.75;0.80;;;;;;;22.96;49.46;101534.28;5054864;28;20477;-61
2022/10/02 09:37:27;;;;;;;6.32;0.60;;;;;;;22.91;50.42;101537.59;5054802;28;20025;-61
2022/10/02 09:40:31;;;;;;;5.82;1.10;;;;;;;22.91;50.31;101547.66;5054996;28;20032;-61
2022/10/02 09:43:18;;;;;;;4.85;1.13;;;;;;;22.97;50.26;101546.91;5054570;28;20036;-61
2022/10/02 09:46:06;;;;;;;3.67;0.90;;;;;;;23.01;49.17;101542.72;5054490;28;20029;-61
2022/10/02 09:49:09;;;;;;;3.42;0.80;;;;;;;23.08;49.01;101538.19;5054792;28;20032;-60
2022/10/02 09:51:50;;;;;;;6.35;1.02;;;;;;;23.24;48.73;101537.09;5050584;28;20445;-61
2022/10/02 09:54:39;;;;;;;7.07;1.08;;;;;;;23.53;48.63;101543.34;5054347;28;20048;-61
2022/10/02 09:57:40;;;;;;;3.95;1.05;;;;;;;23.80;49.00;101540.81;5053221;28;20045;-61
2022/10/02 10:00:19;;;;;;;4.78;0.82;;;;;;;24.15;48.55;101543.44;5053227;28;20120;-60
2022/10/02 10:03:12;;;;;;;4.88;1.15;;;;;;;24.51;47.99;101535.00;5054296;28;20045;-61
2022/10/02 10:06:01;;;;;;;3.85;0.95;;;;;;;24.69;47.44;101540.78;5054182;28;20025;-61
2022/10/02 10:08:33;;;;;;;3.83;1.17;;;;;;;24.97;47.45;101537.13;5054171;28;20503;-61
2022/10/02 10:11:04;;;;;;;4.32;0.93;;;;;;;25.23;47.30;101545.44;5054122;28;20112;-61
2022/10/02 10:13:31;;;;;;;4.32;1.10;;;;;;;25.18;47.60;101539.75;5053900;28;20074;-61
2022/10/02 10:16:33;;;;;;;3.60;0.90;;;;;;;25.30;47.15;101544.41;5054309;28;20409;-61
2022/10/02 10:19:21;;;;;;;3.55;0.77;;;;;;;25.50;46.82;101549.94;5053867;28;20032;-61
2022/10/02 10:22:11;;;;;;;6.22;1.13;;;;;;;25.56;46.89;101560.09;5053373;28;20509;-61
2022/10/02 10:24:57;;;;;;;4.57;0.88;;;;;;;25.56;47.28;101559.25;5054159;28;20035;-61
2022/10/02 10:27:29;;;;;;;4.78;1.08;;;;;;;26.28;45.81;101562.84;5053691;28;20104;-61
2022/10/02 10:30:00;;;;;;;3.05;0.60;;;;;;;26.40;45.78;101563.03;5052868;28;20047;-61
2022/10/02 10:32:49;;;;;;;4.47;1.02;;;;;;;26.70;45.36;101580.72;5053702;28;20470;-61
2022/10/02 10:35:23;;;;;;;4.60;1.33;;;;;;;27.05;45.40;101579.31;5053998;28;20029;-61
2022/10/02 10:41:04;;;;;;;2.28;1.05;;;;;;;27.49;45.45;101580.38;5052746;28;20074;-61
2022/10/02 10:43:41;;;;;;;7.38;1.33;;;;;;;27.70;45.17;101582.75;5052607;28;20436;-62
2022/10/02 10:46:18;;;;;;;3.47;0.60;;;;;;;28.09;44.47;101584.38;5052339;28;20029;-61
2022/10/02 10:48:46;;;;;;;7.30;1.20;;;;;;;27.85;44.84;101596.22;5052335;28;20087;-61
2022/10/02 10:51:32;;;;;;;6.20;1.20;;;;;;;27.60;45.22;101597.03;5053444;28;20029;-61
2022/10/02 10:54:16;;;;;;;6.93;0.95;;;;;;;27.38;44.43;101600.31;5053476;28;20028;-62
2022/10/02 10:57:10;;;;;;;3.40;1.05;;;;;;;27.05;44.74;101595.81;5053183;28;20075;-61
2022/10/02 11:00:02;;;;;;;4.28;1.17;;;;;;;26.81;44.99;101610.31;5043581;28;20121;-61
2022/10/02 11:02:47;;;;;;;2.70;0.70;;;;;;;26.63;45.18;101599.97;5053351;28;20074;-61
2022/10/02 11:05:37;;;;;;;6.88;1.08;;;;;;;26.81;45.32;101604.81;5053084;28;20489;-62
2022/10/02 11:08:34;;;;;;;4.85;0.80;;;;;;;26.68;45.06;101615.81;5053213;28;20028;-62
2022/10/02 11:11:26;;;;;;;6.70;0.88;;;;;;;26.61;44.42;101606.75;5053176;28;20039;-61
2022/10/02 11:14:07;;;;;;;3.92;0.93;;;;;;;26.84;44.65;101606.28;5053190;28;20060;-61
2022/10/02 11:17:23;;;;;;;5.75;1.08;;;;;;;27.05;44.44;101612.31;5053070;28;20018;-61
2022/10/02 11:19:54;;;;;;;2.13;0.80;;;;;;;27.06;44.44;101600.28;5008945;28;20028;-61
2022/10/02 11:22:53;;;;;;;2.60;0.93;;;;;;;27.05;43.95;101600.50;5053058;28;20038;-61
2022/10/02 11:25:59;;;;;;;3.37;1.00;;;;;;;27.02;44.31;101598.19;5052953;28;20025;-61
2022/10/02 11:28:25;;;;;;;2.97;0.80;;;;;;;27.02;44.05;101600.94;5051825;28;20036;-62
2022/10/02 11:31:27;;;;;;;3.22;0.82;;;;;;;27.28;42.94;101595.28;5052973;28;20029;-61
2022/10/02 11:34:20;;;;;;;2.58;1.00;;;;;;;27.22;43.74;101611.84;5054600;28;20104;-61
2022/10/02 11:37:23;;;;;;;4.50;1.10;;;;;;;27.29;43.71;101619.00;5055882;28;20025;-61
2022/10/02 11:40:13;;;;;;;6.53;1.15;;;;;;;27.53;43.05;101611.91;5057192;28;20099;-61
2022/10/02 11:42:44;;;;;;;6.63;1.08;;;;;;;28.13;42.77;101616.78;5056957;28;20051;-61
2022/10/02 11:45:29;;;;;;;1.50;0.80;;;;;;;28.45;41.65;101619.47;5057303;28;20075;-61
2022/10/02 11:48:07;;;;;;;4.50;0.57;;;;;;;28.58;42.37;101613.81;5056792;28;20028;-62
2022/10/02 11:51:08;;;;;;;3.63;1.02;;;;;;;28.84;41.33;101614.38;5056977;28;20540;-61
2022/10/02 11:53:40;;;;;;;4.10;1.83;;;;;;;28.86;41.45;101608.63;5056724;28;20025;-62
2022/10/02 11:56:30;;;;;;;4.68;1.02;;;;;;;28.70;42.18;101606.50;5055665;28;20035;-62
2022/10/02 11:59:06;;;;;;;1.15;0.77;;;;;;;28.42;42.11;101603.38;5056549;28;20402;-62
2022/10/02 12:01:44;;;;;;;3.97;1.05;;;;;;;28.88;40.64;101603.72;5056507;28;20107;-61
2022/10/02 12:04:21;;;;;;;3.25;1.00;;;;;;;29.09;41.10;101608.75;5055577;28;20036;-62
2022/10/02 12:06:52;;;;;;;7.68;1.13;;;;;;;28.93;41.63;101603.88;5055477;28;20021;-62
2022/10/02 12:09:41;;;;;;;6.00;1.00;;;;;;;28.60;41.38;101607.00;5056410;28;20025;-61
2022/10/02 12:12:50;;;;;;;5.40;0.65;;;;;;;28.67;41.44;101612.47;5056486;28;20497;-62
2022/10/02 12:15:37;;;;;;;7.40;1.38;;;;;;;28.57;41.00;101612.09;5052590;28;20035;-61
2022/10/02 12:18:15;;;;;;;2.38;0.50;;;;;;;28.58;40.84;101616.56;5056309;28;20025;-62
2022/10/02 12:26:59;;;;;;;5.50;1.55;;;;;;;27.99;42.03;101606.91;5056110;28;20032;-61
2022/10/02 12:29:27;;;;;;;1.27;0.88;;;;;;;27.76;41.41;101612.16;5056419;28;20043;-62
2022/10/02 12:32:22;;;;;;;1.70;0.68;;;;;;;27.44;42.18;101611.34;5055048;28;20072;-61